Time;durP1;ratioP1;P1;durP2;ratioP2;P2;SDS_P1;SDS_P2;PMS_P1;PMS_P2;Temp;Humidity;BMP_temperature;BMP_pressure;BME280_temperature;BME280_humidity;BME280_pressure;Samples;Min_cycle;Max_cycle;Signal;HPM_P1;HPM_P2
2022/10/23 00:00:42;;;;;;;7.18;3.40;;;;;;;;;;5050215;28;20033;-77
2022/10/23 00:03:10;;;;;;;5.40;2.90;;;;;;;;;;5035676;28;20406;-77
2022/10/23 00:05:41;;;;;;;5.70;3.58;;;;;;;;;;5049801;28;20391;-77
2022/10/23 00:08:09;;;;;;;7.07;2.75;;;;;;;;;;5032349;28;20033;-78
2022/10/23 00:10:39;;;;;;;2.97;2.65;;;;;;;;;;5053174;28;20036;-77
2022/10/23 00:13:07;;;;;;;3.47;2.53;;;;;;;;;;5051148;28;20039;-78
2022/10/23 00:15:33;;;;;;;9.88;2.95;;;;;;;;;;5048908;28;20029;-77
2022/10/23 00:17:59;;;;;;;8.95;3.25;;;;;;;;;;5035127;28;20024;-77
2022/10/23 00:20:29;;;;;;;6.97;3.47;;;;;;;;;;5048593;28;20033;-77
2022/10/23 00:22:57;;;;;;;4.53;2.70;;;;;;;;;;5052090;28;20028;-78
2022/10/23 00:25:23;;;;;;;3.65;2.70;;;;;;;;;;5040653;28;20048;-77
2022/10/23 00:27:54;;;;;;;3.92;2.85;;;;;;;;;;5051090;28;20530;-77
2022/10/23 00:30:25;;;;;;;3.25;2.25;;;;;;;;;;5037070;28;20036;-77
2022/10/23 00:32:51;;;;;;;5.53;2.47;;;;;;;;;;5023798;28;20037;-78
2022/10/23 00:35:22;;;;;;;8.48;2.60;;;;;;;;;;5033840;28;20021;-78
2022/10/23 00:37:50;;;;;;;4.10;2.33;;;;;;;;;;5033080;28;20040;-77
2022/10/23 00:40:16;;;;;;;3.63;2.20;;;;;;;;;;5031832;28;20033;-78
2022/10/23 00:42:42;;;;;;;2.83;2.35;;;;;;;;;;5017016;28;20043;-78
2022/10/23 00:45:12;;;;;;;4.82;2.72;;;;;;;;;;5011336;28;20041;-77
2022/10/23 00:47:38;;;;;;;7.75;2.65;;;;;;;;;;5050519;28;20059;-77
2022/10/23 00:50:07;;;;;;;4.63;2.90;;;;;;;;;;5036596;28;20064;-77
2022/10/23 00:52:39;;;;;;;6.50;2.45;;;;;;;;;;5033251;28;20040;-78
2022/10/23 00:55:07;;;;;;;9.88;3.75;;;;;;;;;;5042012;28;20048;-77
2022/10/23 00:57:42;;;;;;;3.25;2.28;;;;;;;;;;5049698;28;20529;-78
2022/10/23 01:00:10;;;;;;;6.60;2.70;;;;;;;;;;5017430;28;20076;-77
2022/10/23 01:02:38;;;;;;;4.45;2.90;;;;;;;;;;5034036;28;20045;-77
2022/10/23 01:05:07;;;;;;;18.27;3.13;;;;;;;;;;5021476;28;20033;-77
2022/10/23 01:07:54;;;;;;;5.15;2.63;;;;;;;;;;5033665;28;20043;-77
2022/10/23 01:10:27;;;;;;;4.60;2.45;;;;;;;;;;4999498;28;20036;-77
2022/10/23 01:13:11;;;;;;;6.03;3.17;;;;;;;;;;5033001;28;20037;-77
2022/10/23 01:15:48;;;;;;;3.78;2.65;;;;;;;;;;5050311;28;20032;-77
2022/10/23 01:18:24;;;;;;;9.55;3.25;;;;;;;;;;5032430;28;20501;-77
2022/10/23 01:20:57;;;;;;;5.28;2.05;;;;;;;;;;5050057;28;20386;-77
2022/10/23 01:23:32;;;;;;;5.40;2.50;;;;;;;;;;5017365;28;20033;-77
2022/10/23 01:26:00;;;;;;;7.88;1.98;;;;;;;;;;5034549;28;20051;-77
2022/10/23 01:28:47;;;;;;;2.63;2.10;;;;;;;;;;5034145;28;20036;-77
2022/10/23 01:31:17;;;;;;;5.22;2.97;;;;;;;;;;5015173;28;20033;-77
2022/10/23 01:33:45;;;;;;;3.88;2.38;;;;;;;;;;5031978;28;20379;-77
2022/10/23 01:36:13;;;;;;;3.35;2.63;;;;;;;;;;5041272;28;20033;-77
2022/10/23 01:38:43;;;;;;;3.53;2.65;;;;;;;;;;5060993;28;20029;-77
2022/10/23 01:41:23;;;;;;;4.90;2.15;;;;;;;;;;5030407;28;20069;-77
2022/10/23 01:44:05;;;;;;;6.43;2.33;;;;;;;;;;5051998;28;20033;-77
2022/10/23 01:46:36;;;;;;;3.50;1.75;;;;;;;;;;5038833;28;20032;-77
2022/10/23 01:49:07;;;;;;;3.88;2.10;;;;;;;;;;5040771;28;20033;-77
2022/10/23 01:51:35;;;;;;;3.22;1.98;;;;;;;;;;5037501;28;20029;-77
2022/10/23 01:54:06;;;;;;;2.22;1.83;;;;;;;;;;5040168;28;20035;-77
2022/10/23 01:56:34;;;;;;;12.85;3.28;;;;;;;;;;5031449;28;20037;-77
2022/10/23 01:59:07;;;;;;;9.35;3.17;;;;;;;;;;5009782;28;20028;-77
2022/10/23 02:01:40;;;;;;;4.88;2.65;;;;;;;;;;5038049;28;20048;-77
2022/10/23 02:04:10;;;;;;;4.18;2.10;;;;;;;;;;5050230;28;20499;-77
2022/10/23 02:06:38;;;;;;;3.30;2.13;;;;;;;;;;5013300;28;20029;-77
2022/10/23 02:09:07;;;;;;;5.35;2.30;;;;;;;;;;5039273;28;20037;-77
2022/10/23 02:11:38;;;;;;;4.72;1.98;;;;;;;;;;5033868;28;20395;-77
2022/10/23 02:14:04;;;;;;;4.88;2.35;;;;;;;;;;5027098;28;20032;-77
2022/10/23 02:16:40;;;;;;;4.88;2.13;;;;;;;;;;5044336;28;20534;-77
2022/10/23 02:19:08;;;;;;;17.40;3.05;;;;;;;;;;5016789;28;20032;-77
2022/10/23 02:21:40;;;;;;;8.02;2.40;;;;;;;;;;5045091;28;20475;-77
2022/10/23 02:24:08;;;;;;;5.22;2.25;;;;;;;;;;5048416;28;20037;-76
2022/10/23 02:26:40;;;;;;;3.65;1.70;;;;;;;;;;5036952;28;20044;-77
2022/10/23 02:29:18;;;;;;;8.18;2.83;;;;;;;;;;5045403;28;20038;-77
2022/10/23 02:31:47;;;;;;;3.60;1.75;;;;;;;;;;5034440;28;20478;-76
2022/10/23 02:34:12;;;;;;;5.88;2.28;;;;;;;;;;5047597;28;20041;-77
2022/10/23 02:36:41;;;;;;;4.43;2.28;;;;;;;;;;5051202;28;20029;-77
2022/10/23 02:39:07;;;;;;;2.53;2.28;;;;;;;;;;5015616;28;20040;-77
2022/10/23 02:41:38;;;;;;;3.20;2.42;;;;;;;;;;5046692;28;20039;-77
2022/10/23 02:44:08;;;;;;;21.52;2.85;;;;;;;;;;5012918;28;20040;-76
2022/10/23 02:46:50;;;;;;;4.03;3.15;;;;;;;;;;5029344;28;20033;-77
2022/10/23 02:49:38;;;;;;;2.80;1.85;;;;;;;;;;5051617;28;20044;-77
2022/10/23 02:52:13;;;;;;;5.25;2.10;;;;;;;;;;5033625;28;20505;-77
2022/10/23 02:54:39;;;;;;;3.72;1.88;;;;;;;;;;5039000;28;20041;-77
2022/10/23 02:57:12;;;;;;;3.40;1.90;;;;;;;;;;5040419;28;20050;-77
2022/10/23 02:59:53;;;;;;;2.65;1.60;;;;;;;;;;5030727;28;20029;-77
2022/10/23 03:02:34;;;;;;;5.82;2.53;;;;;;;;;;5017810;28;20465;-77
2022/10/23 03:05:04;;;;;;;2.85;2.35;;;;;;;;;;5011166;28;20038;-77
2022/10/23 03:07:34;;;;;;;3.17;2.05;;;;;;;;;;5046588;28;20029;-77
2022/10/23 03:10:05;;;;;;;5.78;2.58;;;;;;;;;;5034802;28;20040;-77
2022/10/23 03:12:32;;;;;;;3.15;2.30;;;;;;;;;;5044551;28;20036;-77
2022/10/23 03:14:58;;;;;;;4.13;2.00;;;;;;;;;;5026565;28;20029;-77
2022/10/23 03:17:24;;;;;;;2.30;1.70;;;;;;;;;;5024274;28;20349;-77
2022/10/23 03:19:56;;;;;;;2.28;2.00;;;;;;;;;;5035710;28;20033;-77
2022/10/23 03:22:22;;;;;;;3.08;2.30;;;;;;;;;;5038252;28;20029;-77
2022/10/23 03:24:50;;;;;;;3.92;2.35;;;;;;;;;;5037335;28;20041;-77
2022/10/23 03:27:16;;;;;;;4.47;3.03;;;;;;;;;;5052332;28;20029;-77
2022/10/23 03:29:44;;;;;;;2.83;2.63;;;;;;;;;;5033916;28;20044;-77
2022/10/23 03:32:13;;;;;;;4.03;2.03;;;;;;;;;;5041113;28;20087;-77
2022/10/23 03:34:41;;;;;;;4.85;2.50;;;;;;;;;;5048089;28;20035;-77
2022/10/23 03:37:11;;;;;;;7.03;3.28;;;;;;;;;;5034258;28;20029;-77
2022/10/23 03:39:37;;;;;;;5.65;2.60;;;;;;;;;;5052967;28;20038;-77
2022/10/23 03:42:10;;;;;;;5.47;2.38;;;;;;;;;;5039234;28;20044;-77
2022/10/23 03:44:38;;;;;;;2.63;1.98;;;;;;;;;;5033072;28;20103;-76
2022/10/23 03:47:04;;;;;;;5.53;1.95;;;;;;;;;;5036507;28;20410;-77
2022/10/23 03:49:32;;;;;;;4.97;3.13;;;;;;;;;;5018884;28;20041;-77
2022/10/23 03:52:03;;;;;;;16.23;2.67;;;;;;;;;;5029985;28;20406;-77
2022/10/23 03:54:29;;;;;;;5.05;2.45;;;;;;;;;;5032406;28;20039;-78
2022/10/23 03:56:55;;;;;;;5.82;2.30;;;;;;;;;;5017642;28;20025;-77
2022/10/23 03:59:23;;;;;;;5.03;1.98;;;;;;;;;;5039191;28;20025;-77
2022/10/23 04:01:49;;;;;;;6.68;2.30;;;;;;;;;;5033009;28;20483;-77
2022/10/23 04:04:16;;;;;;;4.03;2.13;;;;;;;;;;5034093;28;20055;-77
2022/10/23 04:06:45;;;;;;;14.85;3.35;;;;;;;;;;5046450;28;20037;-77
2022/10/23 04:09:15;;;;;;;6.75;2.90;;;;;;;;;;5037937;28;20045;-77
2022/10/23 04:11:43;;;;;;;10.10;2.65;;;;;;;;;;5046862;28;20040;-77
2022/10/23 04:14:11;;;;;;;2.22;1.80;;;;;;;;;;5033186;28;20044;-77
2022/10/23 04:16:42;;;;;;;4.40;1.67;;;;;;;;;;5032996;28;20036;-77
2022/10/23 04:19:10;;;;;;;3.47;1.50;;;;;;;;;;5039538;28;20164;-77
2022/10/23 04:21:36;;;;;;;4.43;1.58;;;;;;;;;;5050965;28;20043;-77
2022/10/23 04:24:06;;;;;;;12.18;3.33;;;;;;;;;;5032325;28;20044;-77
2022/10/23 04:26:34;;;;;;;6.65;2.20;;;;;;;;;;5040112;28;20406;-77
2022/10/23 04:29:05;;;;;;;4.68;1.98;;;;;;;;;;5048265;28;20064;-77
2022/10/23 04:31:31;;;;;;;4.13;2.90;;;;;;;;;;5049732;28;20029;-77
2022/10/23 04:33:59;;;;;;;2.78;2.35;;;;;;;;;;5036021;28;20375;-77
2022/10/23 04:36:28;;;;;;;5.93;2.08;;;;;;;;;;5039617;28;20033;-77
2022/10/23 04:39:00;;;;;;;5.47;1.92;;;;;;;;;;5042892;28;20096;-76
2022/10/23 04:41:28;;;;;;;4.60;2.05;;;;;;;;;;5036615;28;20061;-77
2022/10/23 04:43:56;;;;;;;6.55;2.30;;;;;;;;;;5032206;28;20390;-77
2022/10/23 04:46:25;;;;;;;3.95;1.83;;;;;;;;;;5032402;28;20033;-77
2022/10/23 04:48:50;;;;;;;6.22;2.53;;;;;;;;;;5031557;28;20033;-77
2022/10/23 04:51:39;;;;;;;2.13;1.80;;;;;;;;;;5052468;28;20037;-77
2022/10/23 04:57:28;;;;;;;2.17;1.35;;;;;;;;;;4992332;28;20401;-72
2022/10/23 05:00:00;;;;;;;6.38;1.88;;;;;;;;;;4994075;28;20059;-72
2022/10/23 05:02:26;;;;;;;2.53;1.45;;;;;;;;;;4992831;28;20049;-72
2022/10/23 05:04:52;;;;;;;2.67;2.10;;;;;;;;;;4987373;28;20041;-72
2022/10/23 05:07:41;;;;;;;3.03;2.65;;;;;;;;;;4996039;28;20037;-72
2022/10/23 05:10:38;;;;;;;6.60;2.55;;;;;;;;;;4984814;28;20052;-72
2022/10/23 05:13:12;;;;;;;14.68;4.20;;;;;;;;;;5007351;28;20027;-72
2022/10/23 05:15:40;;;;;;;4.40;2.35;;;;;;;;;;4992679;28;20221;-72
2022/10/23 05:18:14;;;;;;;7.10;3.28;;;;;;;;;;5003308;28;20033;-72
2022/10/23 05:20:44;;;;;;;5.22;2.78;;;;;;;;;;5012522;28;20033;-72
2022/10/23 05:23:10;;;;;;;3.83;2.72;;;;;;;;;;4995044;28;20097;-72
2022/10/23 05:25:37;;;;;;;2.67;2.47;;;;;;;;;;5010702;28;20027;-72
2022/10/23 05:28:12;;;;;;;3.15;2.83;;;;;;;;;;5010228;28;20030;-72
2022/10/23 05:30:41;;;;;;;2.92;2.33;;;;;;;;;;5008762;28;20480;-72
2022/10/23 05:33:07;;;;;;;3.47;3.17;;;;;;;;;;4994049;28;20037;-72
2022/10/23 05:35:39;;;;;;;3.88;2.20;;;;;;;;;;4992582;28;20037;-72
2022/10/23 05:38:05;;;;;;;3.88;2.97;;;;;;;;;;5007887;28;20038;-72
2022/10/23 05:40:39;;;;;;;3.90;2.53;;;;;;;;;;4994510;28;20037;-73
2022/10/23 05:43:10;;;;;;;5.63;2.47;;;;;;;;;;4993801;28;20459;-73
2022/10/23 05:45:48;;;;;;;3.15;2.22;;;;;;;;;;4996866;28;20022;-72
2022/10/23 05:48:37;;;;;;;2.95;2.50;;;;;;;;;;5002468;28;20086;-73
2022/10/23 05:51:39;;;;;;;3.85;2.20;;;;;;;;;;5002138;28;20023;-73
2022/10/23 05:54:45;;;;;;;3.13;2.03;;;;;;;;;;4951895;28;20087;-73
2022/10/23 05:57:33;;;;;;;3.47;2.47;;;;;;;;;;4953633;28;20046;-73
2022/10/23 06:00:03;;;;;;;3.83;1.85;;;;;;;;;;4968706;28;20501;-72
2022/10/23 06:02:43;;;;;;;2.35;2.03;;;;;;;;;;5010363;28;20356;-73
2022/10/23 06:05:27;;;;;;;6.22;2.42;;;;;;;;;;4983414;28;20034;-73
2022/10/23 06:08:34;;;;;;;4.28;2.95;;;;;;;;;;4994814;28;20045;-73
2022/10/23 06:11:09;;;;;;;4.57;2.10;;;;;;;;;;5005972;28;20072;-73
2022/10/23 06:13:36;;;;;;;3.72;2.60;;;;;;;;;;4998699;28;20515;-73
2022/10/23 06:16:09;;;;;;;4.03;2.88;;;;;;;;;;4977554;28;20130;-72
2022/10/23 06:18:35;;;;;;;4.00;3.22;;;;;;;;;;4989657;28;20021;-72
2022/10/23 06:21:12;;;;;;;3.15;2.85;;;;;;;;;;4992234;28;20492;-73
2022/10/23 06:23:39;;;;;;;3.15;2.47;;;;;;;;;;4990584;28;20397;-71
2022/10/23 06:26:28;;;;;;;5.85;3.05;;;;;;;;;;4988088;28;20405;-72
2022/10/23 06:29:09;;;;;;;6.10;2.85;;;;;;;;;;4989123;28;20045;-72
2022/10/23 06:31:42;;;;;;;5.40;2.50;;;;;;;;;;4995538;28;20645;-73
2022/10/23 06:34:09;;;;;;;4.78;2.63;;;;;;;;;;4998374;28;20034;-73
2022/10/23 06:36:36;;;;;;;4.82;2.35;;;;;;;;;;5003324;28;20395;-72
2022/10/23 06:39:21;;;;;;;3.28;2.42;;;;;;;;;;5010306;28;20030;-73
2022/10/23 06:42:02;;;;;;;4.70;2.47;;;;;;;;;;4980840;28;20027;-73
2022/10/23 06:45:04;;;;;;;2.13;1.80;;;;;;;;;;4924025;29;20445;-72
2022/10/23 06:47:45;;;;;;;3.40;2.05;;;;;;;;;;4997710;28;20046;-73
2022/10/23 06:50:40;;;;;;;3.65;1.98;;;;;;;;;;5007269;28;20038;-73
2022/10/23 06:53:13;;;;;;;3.15;1.45;;;;;;;;;;5003240;28;20034;-73
2022/10/23 06:55:50;;;;;;;2.30;1.70;;;;;;;;;;5002903;28;20038;-73
2022/10/23 06:58:19;;;;;;;3.97;2.92;;;;;;;;;;4985964;28;20538;-72
2022/10/23 07:01:12;;;;;;;3.50;2.67;;;;;;;;;;5008522;28;20042;-73
2022/10/23 07:03:39;;;;;;;7.20;1.95;;;;;;;;;;4993798;28;20026;-72
2022/10/23 07:06:10;;;;;;;2.55;1.75;;;;;;;;;;4970104;28;20034;-73
2022/10/23 07:08:39;;;;;;;6.18;2.85;;;;;;;;;;5000736;28;20471;-73
2022/10/23 07:11:27;;;;;;;5.32;2.65;;;;;;;;;;4990110;28;20049;-72
2022/10/23 07:13:57;;;;;;;5.07;2.65;;;;;;;;;;4993593;28;20094;-73
2022/10/23 07:16:23;;;;;;;3.08;2.10;;;;;;;;;;5012515;28;20049;-73
2022/10/23 07:18:58;;;;;;;2.45;1.90;;;;;;;;;;5007691;28;20392;-73
2022/10/23 07:21:44;;;;;;;4.22;2.55;;;;;;;;;;5005389;28;20573;-74
2022/10/23 07:24:30;;;;;;;1.98;1.77;;;;;;;;;;4981468;28;20411;-73
2022/10/23 07:27:00;;;;;;;4.28;3.47;;;;;;;;;;4996632;28;20029;-73
2022/10/23 07:29:31;;;;;;;3.40;2.42;;;;;;;;;;4992754;28;20038;-73
2022/10/23 07:32:00;;;;;;;5.80;3.50;;;;;;;;;;4993757;28;20038;-73
2022/10/23 07:34:51;;;;;;;4.63;2.20;;;;;;;;;;5012146;28;20648;-73
2022/10/23 07:37:27;;;;;;;2.38;1.85;;;;;;;;;;4998450;28;20030;-73
2022/10/23 07:39:53;;;;;;;6.70;2.55;;;;;;;;;;4979434;28;20034;-73
2022/10/23 07:42:19;;;;;;;5.53;2.40;;;;;;;;;;5010892;28;20038;-73
2022/10/23 07:44:45;;;;;;;3.75;2.47;;;;;;;;;;4993675;28;20048;-72
2022/10/23 07:47:13;;;;;;;3.45;2.00;;;;;;;;;;4990110;28;20034;-73
2022/10/23 07:49:46;;;;;;;9.13;3.72;;;;;;;;;;4996742;28;20045;-72
2022/10/23 07:52:14;;;;;;;3.75;2.30;;;;;;;;;;4987741;28;20041;-72
2022/10/23 07:55:07;;;;;;;2.42;2.22;;;;;;;;;;5006907;28;20046;-74
2022/10/23 07:57:38;;;;;;;2.80;2.47;;;;;;;;;;4993213;28;20041;-72
2022/10/23 08:00:22;;;;;;;2.35;1.90;;;;;;;;;;4995662;28;20026;-73
2022/10/23 08:02:58;;;;;;;5.00;1.88;;;;;;;;;;5001615;28;20495;-73
2022/10/23 08:05:24;;;;;;;4.30;2.75;;;;;;;;;;5005381;28;20034;-73
2022/10/23 08:07:58;;;;;;;3.58;2.13;;;;;;;;;;4987742;28;20037;-72
2022/10/23 08:10:24;;;;;;;10.38;2.42;;;;;;;;;;4981290;28;20034;-72
2022/10/23 08:12:52;;;;;;;5.03;2.35;;;;;;;;;;4991909;28;20026;-74
2022/10/23 08:15:25;;;;;;;4.88;3.33;;;;;;;;;;4995207;28;20038;-72
2022/10/23 08:17:59;;;;;;;3.03;2.40;;;;;;;;;;5013288;28;20033;-72
2022/10/23 08:20:47;;;;;;;2.08;1.80;;;;;;;;;;4980965;28;20053;-72
2022/10/23 08:23:17;;;;;;;3.38;2.38;;;;;;;;;;4992226;28;20374;-73
2022/10/23 08:25:45;;;;;;;2.03;1.67;;;;;;;;;;4993904;28;20045;-72
2022/10/23 08:28:15;;;;;;;3.28;2.05;;;;;;;;;;4984317;28;20037;-72
2022/10/23 08:30:55;;;;;;;5.18;2.63;;;;;;;;;;4978891;28;20044;-73
2022/10/23 08:33:21;;;;;;;4.65;2.53;;;;;;;;;;5010958;28;20045;-72
2022/10/23 08:35:49;;;;;;;1.88;1.70;;;;;;;;;;5010847;28;20030;-72
2022/10/23 08:38:28;;;;;;;3.92;2.72;;;;;;;;;;5012253;28;20392;-73
2022/10/23 08:40:54;;;;;;;6.18;3.05;;;;;;;;;;5012168;28;20030;-71
2022/10/23 08:43:42;;;;;;;2.97;2.20;;;;;;;;;;5010412;28;20044;-72
2022/10/23 08:46:24;;;;;;;3.40;2.20;;;;;;;;;;4975491;28;20030;-72
2022/10/23 08:49:37;;;;;;;3.85;1.67;;;;;;;;;;5007198;28;20034;-72
2022/10/23 08:52:15;;;;;;;4.03;2.70;;;;;;;;;;5005540;28;20029;-72
2022/10/23 08:55:02;;;;;;;4.72;2.42;;;;;;;;;;4989246;28;20029;-72
2022/10/23 08:57:34;;;;;;;5.20;2.97;;;;;;;;;;4990011;28;20056;-72
2022/10/23 09:00:05;;;;;;;4.97;2.53;;;;;;;;;;5009365;28;20045;-72
2022/10/23 09:02:34;;;;;;;4.30;2.45;;;;;;;;;;5013334;28;20037;-73
2022/10/23 09:05:02;;;;;;;13.35;2.60;;;;;;;;;;4999651;28;20034;-73
2022/10/23 09:07:31;;;;;;;4.68;2.88;;;;;;;;;;5007204;28;20049;-72
2022/10/23 09:10:14;;;;;;;3.33;2.47;;;;;;;;;;4996627;28;20041;-73
2022/10/23 09:12:40;;;;;;;21.40;3.20;;;;;;;;;;4981806;28;20488;-72
2022/10/23 09:15:15;;;;;;;3.30;3.00;;;;;;;;;;5011274;28;20059;-73
2022/10/23 09:17:43;;;;;;;2.33;2.03;;;;;;;;;;4992113;28;20029;-73
2022/10/23 09:20:09;;;;;;;7.57;2.88;;;;;;;;;;5004421;28;20361;-73
2022/10/23 09:22:35;;;;;;;7.50;3.17;;;;;;;;;;5001654;28;20037;-73
2022/10/23 09:25:03;;;;;;;8.63;3.03;;;;;;;;;;5004037;28;20037;-73
2022/10/23 09:27:29;;;;;;;6.45;3.03;;;;;;;;;;5006293;28;20056;-75
2022/10/23 09:29:59;;;;;;;4.50;2.25;;;;;;;;;;5010240;28;20117;-74
2022/10/23 09:32:41;;;;;;;3.53;2.80;;;;;;;;;;5008796;28;20049;-73
2022/10/23 09:35:19;;;;;;;9.10;2.78;;;;;;;;;;5003297;28;20037;-73
2022/10/23 09:37:51;;;;;;;7.95;2.55;;;;;;;;;;4992011;28;20026;-72
2022/10/23 09:40:37;;;;;;;2.60;1.65;;;;;;;;;;5009986;28;20461;-73
2022/10/23 09:43:12;;;;;;;3.10;1.88;;;;;;;;;;5003135;28;20030;-72
2022/10/23 09:45:41;;;;;;;3.55;1.65;;;;;;;;;;5003137;28;20034;-74
2022/10/23 09:48:13;;;;;;;2.97;2.03;;;;;;;;;;5005606;28;20507;-73
2022/10/23 09:50:52;;;;;;;3.13;2.03;;;;;;;;;;5004847;28;20030;-73
2022/10/23 09:53:22;;;;;;;3.75;1.60;;;;;;;;;;5005473;28;20495;-74
2022/10/23 09:55:50;;;;;;;3.47;1.70;;;;;;;;;;5002541;28;20057;-73
2022/10/23 09:58:22;;;;;;;7.50;1.50;;;;;;;;;;5008876;28;20040;-73
2022/10/23 10:00:51;;;;;;;2.63;1.50;;;;;;;;;;5005814;28;20030;-73
2022/10/23 10:03:19;;;;;;;2.28;1.35;;;;;;;;;;5006833;28;20029;-73
2022/10/23 10:06:00;;;;;;;1.52;1.40;;;;;;;;;;5008278;28;20046;-73
2022/10/23 10:08:29;;;;;;;;;;;;;;;;;;5011972;28;20041;-72
2022/10/23 10:11:00;;;;;;;3.33;1.20;;;;;;;;;;5005680;28;19909;-73
2022/10/23 10:13:28;;;;;;;1.25;1.02;;;;;;;;;;5005158;28;20515;-72
2022/10/23 10:15:56;;;;;;;3.05;1.00;;;;;;;;;;5008923;28;20034;-74
2022/10/23 10:18:30;;;;;;;3.47;1.30;;;;;;;;;;4993804;28;20418;-73
2022/10/23 10:20:56;;;;;;;3.40;1.30;;;;;;;;;;5010481;28;20026;-73
2022/10/23 10:23:28;;;;;;;6.00;1.25;;;;;;;;;;5009271;28;20439;-74
2022/10/23 10:25:56;;;;;;;2.92;0.98;;;;;;;;;;5003409;28;20026;-74
2022/10/23 10:28:37;;;;;;;4.35;1.77;;;;;;;;;;5010067;28;20506;-74
2022/10/23 10:31:12;;;;;;;1.75;1.00;;;;;;;;;;5001824;28;20049;-73
2022/10/23 10:33:46;;;;;;;2.83;1.00;;;;;;;;;;5011087;28;20038;-74
2022/10/23 10:36:27;;;;;;;2.58;1.13;;;;;;;;;;5009096;28;20041;-73
2022/10/23 10:38:59;;;;;;;2.60;1.27;;;;;;;;;;5005661;28;20368;-73
2022/10/23 10:41:34;;;;;;;3.10;1.02;;;;;;;;;;5003023;28;20041;-74
2022/10/23 10:44:06;;;;;;;1.73;1.00;;;;;;;;;;5003371;28;20033;-72
2022/10/23 10:46:41;;;;;;;1.08;0.90;;;;;;;;;;5010898;28;20041;-73
2022/10/23 10:49:09;;;;;;;2.63;1.35;;;;;;;;;;5003221;28;20022;-73
2022/10/23 10:51:43;;;;;;;2.08;1.00;;;;;;;;;;5005479;28;20061;-73
2022/10/23 10:54:25;;;;;;;7.75;1.80;;;;;;;;;;5014914;28;20025;-73
2022/10/23 10:57:04;;;;;;;1.92;1.02;;;;;;;;;;5072698;22;20060;-78
2022/10/23 10:59:36;;;;;;;2.13;0.90;;;;;;;;;;5067332;28;20055;-78
2022/10/23 11:02:29;;;;;;;8.10;1.38;;;;;;;;;;5061315;28;20035;-78
2022/10/23 11:05:15;;;;;;;3.58;1.45;;;;;;;;;;5059285;28;20506;-78
2022/10/23 11:07:51;;;;;;;5.20;1.25;;;;;;;;;;5065841;28;20033;-78
2022/10/23 11:10:20;;;;;;;1.65;0.93;;;;;;;;;;5067189;28;20037;-77
2022/10/23 11:12:50;;;;;;;3.20;1.27;;;;;;;;;;5049110;28;20024;-79
2022/10/23 11:15:22;;;;;;;3.45;1.30;;;;;;;;;;5046622;28;20040;-78
2022/10/23 11:17:51;;;;;;;1.33;1.23;;;;;;;;;;5063107;28;20031;-77
2022/10/23 11:20:27;;;;;;;1.80;1.10;;;;;;;;;;5064088;28;20024;-80
2022/10/23 11:22:55;;;;;;;1.38;0.85;;;;;;;;;;5066406;28;20021;-80
2022/10/23 11:25:21;;;;;;;3.15;1.13;;;;;;;;;;5043581;28;20509;-79
2022/10/23 11:27:53;;;;;;;2.83;1.30;;;;;;;;;;5059400;28;20043;-78
2022/10/23 11:30:26;;;;;;;2.80;0.90;;;;;;;;;;5035447;28;20390;-77
2022/10/23 11:33:11;;;;;;;1.30;1.00;;;;;;;;;;5064878;28;20047;-78
2022/10/23 11:35:40;;;;;;;4.38;1.13;;;;;;;;;;5051596;28;20367;-78
2022/10/23 11:38:15;;;;;;;3.00;1.10;;;;;;;;;;5062202;28;20390;-78
2022/10/23 11:40:45;;;;;;;4.55;1.23;;;;;;;;;;5056828;28;20036;-78
2022/10/23 11:43:13;;;;;;;2.97;1.67;;;;;;;;;;5059345;28;20029;-78
2022/10/23 11:45:44;;;;;;;1.67;1.13;;;;;;;;;;5057153;28;20333;-78
2022/10/23 11:48:12;;;;;;;2.38;1.65;;;;;;;;;;5060777;28;20040;-78
2022/10/23 11:50:45;;;;;;;1.50;0.90;;;;;;;;;;5071092;28;20040;-78
2022/10/23 11:53:25;;;;;;;1.55;0.93;;;;;;;;;;5066047;28;20044;-78
2022/10/23 11:55:58;;;;;;;2.10;1.10;;;;;;;;;;5069775;28;20398;-78
2022/10/23 11:58:41;;;;;;;1.73;1.25;;;;;;;;;;5052895;28;20139;-78
2022/10/23 12:01:26;;;;;;;3.20;1.10;;;;;;;;;;5052837;28;20032;-78
2022/10/23 12:03:59;;;;;;;2.70;1.05;;;;;;;;;;5066290;28;20033;-78
2022/10/23 12:06:30;;;;;;;1.42;1.00;;;;;;;;;;5033452;28;20051;-78
2022/10/23 12:09:02;;;;;;;1.67;1.10;;;;;;;;;;5071479;28;20033;-78
2022/10/23 12:11:45;;;;;;;1.63;0.82;;;;;;;;;;5072851;28;20062;-78
2022/10/23 12:14:28;;;;;;;3.40;1.30;;;;;;;;;;5065759;28;20033;-78
2022/10/23 12:16:57;;;;;;;1.15;1.05;;;;;;;;;;5056995;28;20036;-78
2022/10/23 12:19:27;;;;;;;2.33;1.33;;;;;;;;;;5073600;28;20056;-78
2022/10/23 12:21:57;;;;;;;1.30;1.15;;;;;;;;;;5071550;28;20031;-78
2022/10/23 12:24:30;;;;;;;1.85;0.93;;;;;;;;;;5063432;28;20576;-78
2022/10/23 12:26:59;;;;;;;4.40;1.13;;;;;;;;;;5047315;28;20025;-78
2022/10/23 12:29:30;;;;;;;1.50;1.00;;;;;;;;;;5058000;28;20130;-78
2022/10/23 12:31:59;;;;;;;3.00;1.15;;;;;;;;;;5054457;28;20035;-78
2022/10/23 12:34:47;;;;;;;4.50;1.13;;;;;;;;;;5061646;28;20040;-77
2022/10/23 12:37:44;;;;;;;3.08;1.25;;;;;;;;;;5051251;28;20036;-78
2022/10/23 12:40:12;;;;;;;1.35;1.00;;;;;;;;;;5069265;28;20033;-78
2022/10/23 12:42:48;;;;;;;2.45;1.20;;;;;;;;;;5070918;28;20040;-78
2022/10/23 12:45:28;;;;;;;1.70;1.25;;;;;;;;;;5062066;28;20049;-78
2022/10/23 12:47:54;;;;;;;2.10;1.30;;;;;;;;;;5064470;28;20036;-78
2022/10/23 12:50:25;;;;;;;2.75;0.93;;;;;;;;;;5073244;28;20039;-78
2022/10/23 12:52:57;;;;;;;3.03;1.20;;;;;;;;;;5072373;28;20032;-78
2022/10/23 12:55:24;;;;;;;1.55;1.00;;;;;;;;;;5063085;28;20040;-77
2022/10/23 12:57:51;;;;;;;1.75;1.27;;;;;;;;;;5061618;28;20051;-76
2022/10/23 13:00:20;;;;;;;6.68;0.95;;;;;;;;;;5052709;28;20032;-79
2022/10/23 13:02:56;;;;;;;1.67;0.90;;;;;;;;;;5057366;28;20033;-79
2022/10/23 13:05:28;;;;;;;2.63;1.25;;;;;;;;;;5045297;28;20398;-80
2022/10/23 13:07:57;;;;;;;1.73;1.40;;;;;;;;;;5038436;28;20025;-80
2022/10/23 13:10:37;;;;;;;1.67;1.30;;;;;;;;;;5065962;28;20505;-79
2022/10/23 13:13:06;;;;;;;2.10;1.10;;;;;;;;;;5060536;28;20020;-79
2022/10/23 13:15:44;;;;;;;5.50;2.20;;;;;;;;;;5065307;28;20052;-80
2022/10/23 13:18:12;;;;;;;1.98;1.50;;;;;;;;;;5061471;28;20036;-80
2022/10/23 13:20:51;;;;;;;4.30;2.30;;;;;;;;;;5066741;28;20028;-80
2022/10/23 13:23:18;;;;;;;2.22;1.48;;;;;;;;;;5066737;28;20028;-80
2022/10/23 13:25:58;;;;;;;4.40;1.55;;;;;;;;;;5043147;28;20040;-80
2022/10/23 13:28:41;;;;;;;1.42;1.05;;;;;;;;;;5068436;28;20041;-80
2022/10/23 13:31:10;;;;;;;2.92;1.00;;;;;;;;;;5064286;28;20040;-80
2022/10/23 13:33:39;;;;;;;4.55;1.10;;;;;;;;;;5059728;28;20037;-80
2022/10/23 13:36:15;;;;;;;2.00;1.05;;;;;;;;;;5063372;28;20055;-80
2022/10/23 13:38:46;;;;;;;3.45;1.25;;;;;;;;;;5042609;28;20036;-80
2022/10/23 13:41:14;;;;;;;2.65;1.50;;;;;;;;;;5055333;28;20032;-80
2022/10/23 13:43:45;;;;;;;3.15;1.20;;;;;;;;;;5066573;28;20025;-80
2022/10/23 13:46:17;;;;;;;2.70;1.35;;;;;;;;;;5062511;28;20040;-80
2022/10/23 13:48:43;;;;;;;3.40;1.40;;;;;;;;;;5059960;28;20032;-79
2022/10/23 13:51:13;;;;;;;3.80;1.13;;;;;;;;;;5066473;28;20029;-80
2022/10/23 13:53:42;;;;;;;4.38;1.60;;;;;;;;;;5060749;28;20035;-80
2022/10/23 13:56:17;;;;;;;3.30;1.27;;;;;;;;;;5059382;28;20041;-80
2022/10/23 13:58:43;;;;;;;2.97;1.55;;;;;;;;;;5066192;28;20029;-80
2022/10/23 14:01:21;;;;;;;4.25;1.63;;;;;;;;;;5068053;28;20030;-80
2022/10/23 14:03:47;;;;;;;4.82;1.58;;;;;;;;;;5059540;28;20031;-80
2022/10/23 14:06:15;;;;;;;3.15;1.10;;;;;;;;;;5032567;28;20056;-80
2022/10/23 14:08:41;;;;;;;2.45;1.45;;;;;;;;;;5061348;28;20035;-80
2022/10/23 14:11:08;;;;;;;2.55;1.05;;;;;;;;;;5044167;28;20482;-80
2022/10/23 14:13:36;;;;;;;1.77;1.65;;;;;;;;;;5059432;28;20035;-80
2022/10/23 14:16:07;;;;;;;1.70;1.30;;;;;;;;;;5065374;28;20024;-80
2022/10/23 14:18:40;;;;;;;1.25;0.85;;;;;;;;;;5076953;28;20032;-79
2022/10/23 14:21:10;;;;;;;2.35;1.20;;;;;;;;;;5072702;28;20020;-80
2022/10/23 14:23:36;;;;;;;1.83;1.10;;;;;;;;;;5069570;28;20029;-80
2022/10/23 14:26:22;;;;;;;2.45;1.50;;;;;;;;;;5054989;28;20485;-80
2022/10/23 14:28:54;;;;;;;2.90;1.23;;;;;;;;;;5065497;28;20390;-80
2022/10/23 14:31:22;;;;;;;1.92;1.08;;;;;;;;;;5058438;28;20036;-80
2022/10/23 14:33:55;;;;;;;4.07;1.55;;;;;;;;;;5054710;28;20025;-80
2022/10/23 14:36:23;;;;;;;1.85;1.50;;;;;;;;;;5062162;28;20051;-80
2022/10/23 14:38:53;;;;;;;3.95;1.00;;;;;;;;;;5065039;28;20222;-79
2022/10/23 14:41:24;;;;;;;1.58;1.05;;;;;;;;;;5062066;28;20033;-80
2022/10/23 14:43:55;;;;;;;1.63;1.25;;;;;;;;;;5065497;28;20032;-80
2022/10/23 14:46:21;;;;;;;3.45;2.17;;;;;;;;;;5055789;28;20033;-80
2022/10/23 14:48:53;;;;;;;3.67;1.00;;;;;;;;;;5059697;28;20398;-80
2022/10/23 14:51:22;;;;;;;2.53;1.73;;;;;;;;;;5062284;28;20036;-80
2022/10/23 14:53:52;;;;;;;3.20;2.13;;;;;;;;;;5062642;28;20036;-80
2022/10/23 14:56:21;;;;;;;1.65;1.48;;;;;;;;;;5066542;28;20025;-80
2022/10/23 14:58:53;;;;;;;3.50;1.52;;;;;;;;;;5059178;28;20042;-80
2022/10/23 15:01:21;;;;;;;2.35;1.40;;;;;;;;;;5061789;28;20032;-80
2022/10/23 15:03:53;;;;;;;3.20;1.13;;;;;;;;;;5065196;28;20371;-77
2022/10/23 15:06:21;;;;;;;3.00;1.60;;;;;;;;;;5062513;28;20021;-77
2022/10/23 15:08:56;;;;;;;2.53;1.33;;;;;;;;;;5069956;28;20392;-80
2022/10/23 15:11:24;;;;;;;1.67;1.38;;;;;;;;;;5064558;28;20037;-80
2022/10/23 15:13:50;;;;;;;5.35;1.08;;;;;;;;;;5072339;28;20390;-80
2022/10/23 15:16:16;;;;;;;2.60;1.25;;;;;;;;;;5064503;28;20029;-78
2022/10/23 15:18:42;;;;;;;3.13;1.58;;;;;;;;;;5064852;28;20425;-78